Time;durP1;ratioP1;P1;durP2;ratioP2;P2;SDS_P1;SDS_P2;PMS_P1;PMS_P2;Temp;Humidity;BMP_temperature;BMP_pressure;BME280_temperature;BME280_humidity;BME280_pressure;Samples;Min_cycle;Max_cycle;Signal;HPM_P1;HPM_P2
2024/04/06 00:02:07;;;;;;;;;;;;;;;;;;5160030;27;20288;-37
2024/04/06 00:04:33;;;;;;;;;;;;;;;;;;5159828;27;20281;-37
2024/04/06 00:06:59;;;;;;;;;;;;;;;;;;5160191;27;19998;-37
2024/04/06 00:09:25;;;;;;;;;;;;;;;;;;5160168;27;19911;-38
2024/04/06 00:11:51;;;;;;;;;;;;;;;;;;5159866;27;19932;-37
2024/04/06 00:14:18;;;;;;;;;;;;;;;;;;5160219;27;20258;-37
2024/04/06 00:16:44;;;;;;;;;;;;;;;;;;5159570;27;19929;-37
2024/04/06 00:19:10;;;;;;;;;;;;;;;;;;5160012;27;19907;-37
2024/04/06 00:21:36;;;;;;;;;;;;;;;;;;5159736;27;20399;-37
2024/04/06 00:24:02;;;;;;;;;;;;;;;;;;5159739;27;20009;-37
2024/04/06 00:26:28;;;;;;;;;;;;;;;;;;5159998;27;19907;-37
2024/04/06 00:28:54;;;;;;;;;;;;;;;;;;5159537;27;19935;-37
2024/04/06 00:31:20;;;;;;;;;;;;;;;;;;5159400;27;19949;-37
2024/04/06 00:33:46;;;;;;;;;;;;;;;;;;5160065;27;19910;-37
2024/04/06 00:36:12;;;;;;;;;;;;;;;;;;5159624;27;19911;-37
2024/04/06 00:38:38;;;;;;;;;;;;;;;;;;5159465;27;19903;-38
2024/04/06 00:41:04;;;;;;;;;;;;;;;;;;5159819;27;19915;-37
2024/04/06 00:43:31;;;;;;;;;;;;;;;;;;5159686;27;20274;-37
2024/04/06 00:45:57;;;;;;;;;;;;;;;;;;5159386;27;19939;-37
2024/04/06 00:48:23;;;;;;;;;;;;;;;;;;5159877;27;19922;-37
2024/04/06 00:50:49;;;;;;;;;;;;;;;;;;5161032;27;20044;-37
2024/04/06 00:53:15;;;;;;;;;;;;;;;;;;5163857;27;19914;-37
2024/04/06 00:55:41;;;;;;;;;;;;;;;;;;5164043;27;19913;-37
2024/04/06 00:58:06;;;;;;;;;;;;;;;;;;5163604;27;19938;-37
2024/04/06 01:00:32;;;;;;;;;;;;;;;;;;5163905;27;19907;-37
2024/04/06 01:02:58;;;;;;;;;;;;;;;;;;5163514;27;19911;-37
2024/04/06 01:05:24;;;;;;;;;;;;;;;;;;5163726;27;19932;-37
2024/04/06 01:07:50;;;;;;;;;;;;;;;;;;5163277;27;19914;-37
2024/04/06 01:10:16;;;;;;;;;;;;;;;;;;5163264;27;19955;-37
2024/04/06 01:12:43;;;;;;;;;;;;;;;;;;5163292;27;20484;-37
2024/04/06 01:15:09;;;;;;;;;;;;;;;;;;5163414;27;19998;-37
2024/04/06 01:17:35;;;;;;;;;;;;;;;;;;5163421;27;20437;-37
2024/04/06 01:20:01;;;;;;;;;;;;;;;;;;5163670;27;19914;-37
2024/04/06 01:22:27;;;;;;;;;;;;;;;;;;5163048;27;20432;-37
2024/04/06 01:24:53;;;;;;;;;;;;;;;;;;5163159;27;19969;-37
2024/04/06 01:27:19;;;;;;;;;;;;;;;;;;5163260;27;19925;-37
2024/04/06 01:29:45;;;;;;;;;;;;;;;;;;5162861;27;19998;-37
2024/04/06 01:32:11;;;;;;;;;;;;;;;;;;5162833;27;20351;-37
2024/04/06 01:34:37;;;;;;;;;;;;;;;;;;5162983;27;19907;-37
2024/04/06 01:37:06;;;;;;;;;;;;;;;;;;5162946;27;19907;-37
2024/04/06 01:39:32;;;;;;;;;;;;;;;;;;5162410;27;19917;-38
2024/04/06 01:41:58;;;;;;;;;;;;;;;;;;5162958;27;20006;-37
2024/04/06 01:44:24;;;;;;;;;;;;;;;;;;5162886;27;20002;-38
2024/04/06 01:46:50;;;;;;;;;;;;;;;;;;5162628;27;19970;-37
2024/04/06 01:49:16;;;;;;;;;;;;;;;;;;5162857;27;19959;-37
2024/04/06 01:51:42;;;;;;;;;;;;;;;;;;5162547;27;20299;-37
2024/04/06 01:54:07;;;;;;;;;;;;;;;;;;5163013;27;19907;-38
2024/04/06 01:56:33;;;;;;;;;;;;;;;;;;5162426;27;19907;-37
2024/04/06 01:58:59;;;;;;;;;;;;;;;;;;5162556;27;20269;-38
2024/04/06 02:01:25;;;;;;;;;;;;;;;;;;5162361;27;20005;-38
2024/04/06 02:03:51;;;;;;;;;;;;;;;;;;5162352;27;19907;-37
2024/04/06 02:06:18;;;;;;;;;;;;;;;;;;5162458;27;19911;-38
2024/04/06 02:08:44;;;;;;;;;;;;;;;;;;5162332;27;19914;-37
2024/04/06 02:11:10;;;;;;;;;;;;;;;;;;5162558;27;19974;-37
2024/04/06 02:13:36;;;;;;;;;;;;;;;;;;5162457;27;19907;-38
2024/04/06 02:16:02;;;;;;;;;;;;;;;;;;5162299;27;19949;-37
2024/04/06 02:18:28;;;;;;;;;;;;;;;;;;5162184;27;20389;-37
2024/04/06 02:20:54;;;;;;;;;;;;;;;;;;5162028;27;19907;-37
2024/04/06 02:23:20;;;;;;;;;;;;;;;;;;5162427;27;20369;-37
2024/04/06 02:25:46;;;;;;;;;;;;;;;;;;5161892;27;19957;-37
2024/04/06 02:28:12;;;;;;;;;;;;;;;;;;5162099;27;19931;-37
2024/04/06 02:30:38;;;;;;;;;;;;;;;;;;5161536;27;20343;-37
2024/04/06 02:33:04;;;;;;;;;;;;;;;;;;5162337;27;19907;-37
2024/04/06 02:35:30;;;;;;;;;;;;;;;;;;5161892;27;19908;-37
2024/04/06 02:37:56;;;;;;;;;;;;;;;;;;5161912;27;20405;-38
2024/04/06 02:40:22;;;;;;;;;;;;;;;;;;5162011;27;19914;-38
2024/04/06 02:42:48;;;;;;;;;;;;;;;;;;5161663;27;19990;-37
2024/04/06 02:45:14;;;;;;;;;;;;;;;;;;5161894;27;19963;-38
2024/04/06 02:47:40;;;;;;;;;;;;;;;;;;5161615;27;19907;-37
2024/04/06 02:50:06;;;;;;;;;;;;;;;;;;5161504;27;19911;-37
2024/04/06 02:52:32;;;;;;;;;;;;;;;;;;5161692;27;19918;-37
2024/04/06 02:54:58;;;;;;;;;;;;;;;;;;5161557;27;19943;-37
2024/04/06 02:57:24;;;;;;;;;;;;;;;;;;5161304;27;19933;-37
2024/04/06 02:59:50;;;;;;;;;;;;;;;;;;5161168;27;19946;-37
2024/04/06 03:02:16;;;;;;;;;;;;;;;;;;5161150;27;19932;-38
2024/04/06 03:04:42;;;;;;;;;;;;;;;;;;5161304;27;19932;-37
2024/04/06 03:07:09;;;;;;;;;;;;;;;;;;5161241;27;19908;-37
2024/04/06 03:09:36;;;;;;;;;;;;;;;;;;5160732;27;19911;-37
2024/04/06 03:12:02;;;;;;;;;;;;;;;;;;5160858;27;20019;-37
2024/04/06 03:14:28;;;;;;;;;;;;;;;;;;5159817;27;19907;-37
2024/04/06 03:16:54;;;;;;;;;;;;;;;;;;5161039;27;20611;-37
2024/04/06 03:19:20;;;;;;;;;;;;;;;;;;5161351;27;20398;-37
2024/04/06 03:21:46;;;;;;;;;;;;;;;;;;5160710;27;19907;-37
2024/04/06 03:24:12;;;;;;;;;;;;;;;;;;5160902;27;19917;-37
2024/04/06 03:26:38;;;;;;;;;;;;;;;;;;5160870;27;20337;-37
2024/04/06 03:29:04;;;;;;;;;;;;;;;;;;5160393;27;19957;-37
2024/04/06 03:31:31;;;;;;;;;;;;;;;;;;5160947;27;19911;-37
2024/04/06 03:33:56;;;;;;;;;;;;;;;;;;5160603;27;19994;-37
2024/04/06 03:36:22;;;;;;;;;;;;;;;;;;5160939;27;19972;-37
2024/04/06 03:38:48;;;;;;;;;;;;;;;;;;5160610;27;19914;-37
2024/04/06 03:41:14;;;;;;;;;;;;;;;;;;5160397;27;20067;-37
2024/04/06 03:43:40;;;;;;;;;;;;;;;;;;5160354;27;19923;-37
2024/04/06 03:46:07;;;;;;;;;;;;;;;;;;5160496;27;19907;-37
2024/04/06 03:48:33;;;;;;;;;;;;;;;;;;5160396;27;19907;-37
2024/04/06 03:50:59;;;;;;;;;;;;;;;;;;5160046;27;19908;-37
2024/04/06 03:53:25;;;;;;;;;;;;;;;;;;5160206;27;19907;-37
2024/04/06 03:55:51;;;;;;;;;;;;;;;;;;5160613;27;20337;-37
2024/04/06 03:58:17;;;;;;;;;;;;;;;;;;5160088;27;19908;-37
2024/04/06 04:00:44;;;;;;;;;;;;;;;;;;5159842;27;20316;-37
2024/04/06 04:03:10;;;;;;;;;;;;;;;;;;5159935;27;19911;-37
2024/04/06 04:05:36;;;;;;;;;;;;;;;;;;5160038;27;19914;-37
2024/04/06 04:08:02;;;;;;;;;;;;;;;;;;5160248;27;19973;-38
2024/04/06 04:10:28;;;;;;;;;;;;;;;;;;5159748;27;20006;-38
2024/04/06 04:12:53;;;;;;;;;;;;;;;;;;5160138;27;19907;-37
2024/04/06 04:15:19;;;;;;;;;;;;;;;;;;5159826;27;19968;-37
2024/04/06 04:17:45;;;;;;;;;;;;;;;;;;5159628;27;19994;-37
2024/04/06 04:20:12;;;;;;;;;;;;;;;;;;5159807;27;19915;-37
2024/04/06 04:22:38;;;;;;;;;;;;;;;;;;5159533;27;19994;-37
2024/04/06 04:25:04;;;;;;;;;;;;;;;;;;5159819;27;19999;-37
2024/04/06 04:27:32;;;;;;;;;;;;;;;;;;5159763;27;19913;-37
2024/04/06 04:29:58;;;;;;;;;;;;;;;;;;5159394;27;19964;-37
2024/04/06 04:32:24;;;;;;;;;;;;;;;;;;5160202;27;19915;-37
2024/04/06 04:34:49;;;;;;;;;;;;;;;;;;5159670;27;19956;-37
2024/04/06 04:37:15;;;;;;;;;;;;;;;;;;5159794;27;19974;-37
2024/04/06 04:39:41;;;;;;;;;;;;;;;;;;5159937;27;20282;-37
2024/04/06 04:42:07;;;;;;;;;;;;;;;;;;5159472;27;19907;-37
2024/04/06 04:44:33;;;;;;;;;;;;;;;;;;5159725;27;19907;-39
2024/04/06 04:46:59;;;;;;;;;;;;;;;;;;5159923;27;20299;-38
2024/04/06 04:49:25;;;;;;;;;;;;;;;;;;5159740;27;19911;-37
2024/04/06 04:51:51;;;;;;;;;;;;;;;;;;5159672;27;19911;-37
2024/04/06 04:54:18;;;;;;;;;;;;;;;;;;5159673;27;19907;-37
2024/04/06 04:56:44;;;;;;;;;;;;;;;;;;5159465;27;19907;-37
2024/04/06 04:59:10;;;;;;;;;;;;;;;;;;5159816;27;19914;-37
2024/04/06 05:01:36;;;;;;;;;;;;;;;;;;5159157;27;19914;-37
2024/04/06 05:04:03;;;;;;;;;;;;;;;;;;5159451;27;20362;-37
2024/04/06 05:06:29;;;;;;;;;;;;;;;;;;5159813;27;20276;-38
2024/04/06 05:08:57;;;;;;;;;;;;;;;;;;5159247;27;19934;-38
2024/04/06 05:11:23;;;;;;;;;;;;;;;;;;5159218;27;19925;-37
2024/04/06 05:13:52;;;;;;;;;;;;;;;;;;5159387;27;19921;-37
2024/04/06 05:16:18;;;;;;;;;;;;;;;;;;5159616;27;19990;-37
2024/04/06 05:18:44;;;;;;;;;;;;;;;;;;5159678;27;19938;-37
2024/04/06 05:21:10;;;;;;;;;;;;;;;;;;5159396;27;19907;-37
2024/04/06 05:23:36;;;;;;;;;;;;;;;;;;5159675;27;19914;-37
2024/04/06 05:26:02;;;;;;;;;;;;;;;;;;5159150;27;19932;-37
2024/04/06 05:28:28;;;;;;;;;;;;;;;;;;5159133;27;19907;-37
2024/04/06 05:30:54;;;;;;;;;;;;;;;;;;5158850;27;19927;-37
2024/04/06 05:33:23;;;;;;;;;;;;;;;;;;5159252;27;19903;-37
2024/04/06 05:35:49;;;;;;;;;;;;;;;;;;5159402;27;19907;-37
2024/04/06 05:38:15;;;;;;;;;;;;;;;;;;5162498;27;20417;-37
2024/04/06 05:40:42;;;;;;;;;;;;;;;;;;5163198;27;19922;-37
2024/04/06 05:43:08;;;;;;;;;;;;;;;;;;5162519;27;19960;-37
2024/04/06 05:45:34;;;;;;;;;;;;;;;;;;5162565;27;19903;-37
2024/04/06 05:48:03;;;;;;;;;;;;;;;;;;5162662;27;20005;-37
2024/04/06 05:50:30;;;;;;;;;;;;;;;;;;5162383;27;19911;-37
2024/04/06 05:52:56;;;;;;;;;;;;;;;;;;5162340;27;19949;-37
2024/04/06 05:55:22;;;;;;;;;;;;;;;;;;5162724;27;20249;-37
2024/04/06 05:57:48;;;;;;;;;;;;;;;;;;5162244;27;19908;-37
2024/04/06 06:00:15;;;;;;;;;;;;;;;;;;5162372;27;19904;-37
2024/04/06 06:02:41;;;;;;;;;;;;;;;;;;5162449;27;19908;-37
2024/04/06 06:05:07;;;;;;;;;;;;;;;;;;5162239;27;19909;-37
2024/04/06 06:07:33;;;;;;;;;;;;;;;;;;5162546;27;19907;-37
2024/04/06 06:09:59;;;;;;;;;;;;;;;;;;5162379;27;20345;-37
2024/04/06 06:12:25;;;;;;;;;;;;;;;;;;5162604;27;19911;-37
2024/04/06 06:14:51;;;;;;;;;;;;;;;;;;5162297;27;19911;-37
2024/04/06 06:17:16;;;;;;;;;;;;;;;;;;5162570;27;19914;-37
2024/04/06 06:19:42;;;;;;;;;;;;;;;;;;5162045;27;19911;-37
2024/04/06 06:22:09;;;;;;;;;;;;;;;;;;5162196;27;19917;-37
2024/04/06 06:24:35;;;;;;;;;;;;;;;;;;5161706;27;19956;-37
2024/04/06 06:27:01;;;;;;;;;;;;;;;;;;5161708;27;19907;-37
2024/04/06 06:29:27;;;;;;;;;;;;;;;;;;5161883;27;19919;-37
2024/04/06 06:31:53;;;;;;;;;;;;;;;;;;5161919;27;19910;-37
2024/04/06 06:34:20;;;;;;;;;;;;;;;;;;5161711;27;19914;-37
2024/04/06 06:36:46;;;;;;;;;;;;;;;;;;5161482;27;20265;-37
2024/04/06 06:39:12;;;;;;;;;;;;;;;;;;5161534;27;19911;-37
2024/04/06 06:41:38;;;;;;;;;;;;;;;;;;5161869;27;19907;-37
2024/04/06 06:44:04;;;;;;;;;;;;;;;;;;5161479;27;19903;-37
2024/04/06 06:46:33;;;;;;;;;;;;;;;;;;5161661;27;20295;-37
2024/04/06 06:48:59;;;;;;;;;;;;;;;;;;5161392;27;19911;-38
2024/04/06 06:51:26;;;;;;;;;;;;;;;;;;5161813;27;19907;-37
2024/04/06 06:53:52;;;;;;;;;;;;;;;;;;5161170;27;20002;-37
2024/04/06 06:56:20;;;;;;;;;;;;;;;;;;5161826;27;19943;-37
2024/04/06 06:58:46;;;;;;;;;;;;;;;;;;5161013;27;19950;-37
2024/04/06 07:01:12;;;;;;;;;;;;;;;;;;5161193;27;19907;-37
2024/04/06 07:03:38;;;;;;;;;;;;;;;;;;5161469;27;19908;-37
2024/04/06 07:06:07;;;;;;;;;;;;;;;;;;5161064;27;19903;-37
2024/04/06 07:08:33;;;;;;;;;;;;;;;;;;5161408;27;19946;-37
2024/04/06 07:10:59;;;;;;;;;;;;;;;;;;5160904;27;19964;-37
2024/04/06 07:13:26;;;;;;;;;;;;;;;;;;5160932;27;19929;-37
2024/04/06 07:15:52;;;;;;;;;;;;;;;;;;5160870;27;19907;-37
2024/04/06 07:18:18;;;;;;;;;;;;;;;;;;5160610;27;20370;-37
2024/04/06 07:20:44;;;;;;;;;;;;;;;;;;5160814;27;19907;-37
2024/04/06 07:23:10;;;;;;;;;;;;;;;;;;5160748;27;20007;-37
2024/04/06 07:25:36;;;;;;;;;;;;;;;;;;5161177;27;19907;-37
2024/04/06 07:28:02;;;;;;;;;;;;;;;;;;5160702;27;20333;-37
2024/04/06 07:30:28;;;;;;;;;;;;;;;;;;5160608;27;19919;-37
2024/04/06 07:32:54;;;;;;;;;;;;;;;;;;5161045;27;19970;-37
2024/04/06 07:35:19;;;;;;;;;;;;;;;;;;5160704;27;19908;-37
2024/04/06 07:37:45;;;;;;;;;;;;;;;;;;5160483;27;19993;-37
2024/04/06 07:40:11;;;;;;;;;;;;;;;;;;5160680;27;19907;-37
2024/04/06 07:42:38;;;;;;;;;;;;;;;;;;5160366;27;19951;-37
2024/04/06 07:45:04;;;;;;;;;;;;;;;;;;5160033;27;19930;-37
2024/04/06 07:47:30;;;;;;;;;;;;;;;;;;5160481;27;19907;-37
2024/04/06 07:49:56;;;;;;;;;;;;;;;;;;5160434;27;19977;-37
2024/04/06 07:52:22;;;;;;;;;;;;;;;;;;5160019;27;20446;-37
2024/04/06 07:54:50;;;;;;;;;;;;;;;;;;5160218;27;19907;-37
2024/04/06 07:57:16;;;;;;;;;;;;;;;;;;5160217;27;20007;-37
2024/04/06 07:59:42;;;;;;;;;;;;;;;;;;5160165;27;19915;-37
2024/04/06 08:02:10;;;;;;;;;;;;;;;;;;5160112;27;19907;-37
2024/04/06 08:04:36;;;;;;;;;;;;;;;;;;5160002;27;19907;-37
2024/04/06 08:07:03;;;;;;;;;;;;;;;;;;5160483;27;19911;-37
2024/04/06 08:09:29;;;;;;;;;;;;;;;;;;5159826;27;19912;-39
2024/04/06 08:11:55;;;;;;;;;;;;;;;;;;5157958;27;19915;-37
2024/04/06 08:14:22;;;;;;;;;;;;;;;;;;5139551;27;21134;-37
2024/04/06 08:16:48;;;;;;;;;;;;;;;;;;5138886;27;19956;-37
2024/04/06 08:19:14;;;;;;;;;;;;;;;;;;5139307;27;19911;-37
2024/04/06 08:21:40;;;;;;;;;;;;;;;;;;5139303;27;20369;-37
2024/04/06 08:24:06;;;;;;;;;;;;;;;;;;5139292;27;19926;-37
2024/04/06 08:26:32;;;;;;;;;;;;;;;;;;5139578;27;19998;-37
2024/04/06 08:28:59;;;;;;;;;;;;;;;;;;5139034;27;19912;-37
2024/04/06 08:31:25;;;;;;;;;;;;;;;;;;5138672;27;20005;-37
2024/04/06 08:33:51;;;;;;;;;;;;;;;;;;5139117;28;20012;-37
2024/04/06 08:36:17;;;;;;;;;;;;;;;;;;5138939;28;19915;-37
2024/04/06 08:38:43;;;;;;;;;;;;;;;;;;5138652;28;20007;-37
2024/04/06 08:41:09;;;;;;;;;;;;;;;;;;5139154;28;19907;-38
2024/04/06 08:43:35;;;;;;;;;;;;;;;;;;5138832;28;19960;-37
2024/04/06 08:46:01;;;;;;;;;;;;;;;;;;5138696;28;19908;-37
2024/04/06 08:48:27;;;;;;;;;;;;;;;;;;5139232;28;20323;-37
2024/04/06 08:50:54;;;;;;;;;;;;;;;;;;5138451;28;19911;-37
2024/04/06 08:53:21;;;;;;;;;;;;;;;;;;5138643;28;19907;-37
2024/04/06 08:55:47;;;;;;;;;;;;;;;;;;5138524;28;19914;-37
2024/04/06 08:58:13;;;;;;;;;;;;;;;;;;5138823;28;19908;-37
2024/04/06 09:00:39;;;;;;;;;;;;;;;;;;5139073;28;20301;-38
2024/04/06 09:03:05;;;;;;;;;;;;;;;;;;5138923;28;19916;-37
2024/04/06 09:05:31;;;;;;;;;;;;;;;;;;5138824;28;19907;-37
2024/04/06 09:07:57;;;;;;;;;;;;;;;;;;5139064;28;19907;-37
2024/04/06 09:10:23;;;;;;;;;;;;;;;;;;5139011;27;19911;-37
2024/04/06 09:12:49;;;;;;;;;;;;;;;;;;5141769;27;19919;-37
2024/04/06 09:15:17;;;;;;;;;;;;;;;;;;5142708;27;19910;-37
2024/04/06 09:17:43;;;;;;;;;;;;;;;;;;5142680;27;19995;-37
2024/04/06 09:20:09;;;;;;;;;;;;;;;;;;5142815;27;19911;-37
2024/04/06 09:22:36;;;;;;;;;;;;;;;;;;5142609;27;19911;-37
2024/04/06 09:25:01;;;;;;;;;;;;;;;;;;5142160;27;19948;-37
2024/04/06 09:27:27;;;;;;;;;;;;;;;;;;5142350;27;19990;-38
2024/04/06 09:29:53;;;;;;;;;;;;;;;;;;5141715;27;19920;-37
2024/04/06 09:32:21;;;;;;;;;;;;;;;;;;5142211;27;19914;-37
2024/04/06 09:34:47;;;;;;;;;;;;;;;;;;5142434;27;19907;-37
2024/04/06 09:37:12;;;;;;;;;;;;;;;;;;5141986;27;19911;-37
2024/04/06 09:39:39;;;;;;;;;;;;;;;;;;5142557;27;20239;-37
2024/04/06 09:42:04;;;;;;;;;;;;;;;;;;5141944;27;19911;-37
2024/04/06 09:44:30;;;;;;;;;;;;;;;;;;5141910;27;19959;-37
2024/04/06 09:46:56;;;;;;;;;;;;;;;;;;5142124;27;19914;-37
2024/04/06 09:49:22;;;;;;;;;;;;;;;;;;5141818;27;19922;-37
2024/04/06 09:51:48;;;;;;;;;;;;;;;;;;5141570;27;19915;-37
2024/04/06 09:54:14;;;;;;;;;;;;;;;;;;5142047;27;19904;-37
2024/04/06 09:56:40;;;;;;;;;;;;;;;;;;5141554;27;19908;-37
2024/04/06 09:59:06;;;;;;;;;;;;;;;;;;5142014;27;20685;-37
2024/04/06 10:01:32;;;;;;;;;;;;;;;;;;5141525;27;20392;-37
2024/04/06 10:03:58;;;;;;;;;;;;;;;;;;5141813;27;19994;-37
2024/04/06 10:06:28;;;;;;;;;;;;;;;;;;5141308;27;19911;-38
2024/04/06 10:08:54;;;;;;;;;;;;;;;;;;5141516;27;19987;-37
2024/04/06 10:11:21;;;;;;;;;;;;;;;;;;5141931;27;19950;-37
2024/04/06 10:13:47;;;;;;;;;;;;;;;;;;5141310;27;19908;-37
2024/04/06 10:16:13;;;;;;;;;;;;;;;;;;5141527;27;19960;-37
2024/04/06 10:18:39;;;;;;;;;;;;;;;;;;5141762;27;20282;-37
2024/04/06 10:21:05;;;;;;;;;;;;;;;;;;5141613;27;19907;-37
2024/04/06 10:23:31;;;;;;;;;;;;;;;;;;5141116;27;19994;-37
2024/04/06 10:25:57;;;;;;;;;;;;;;;;;;5141298;27;19969;-37
2024/04/06 10:28:24;;;;;;;;;;;;;;;;;;5140936;27;19918;-37
2024/04/06 10:30:50;;;;;;;;;;;;;;;;;;5140565;27;19923;-37
2024/04/06 10:33:16;;;;;;;;;;;;;;;;;;5141113;27;19991;-37
2024/04/06 10:35:42;;;;;;;;;;;;;;;;;;5140809;27;19998;-37
2024/04/06 10:38:08;;;;;;;;;;;;;;;;;;5140715;27;19907;-37
2024/04/06 10:40:34;;;;;;;;;;;;;;;;;;5140724;27;20380;-37
2024/04/06 10:43:00;;;;;;;;;;;;;;;;;;5140331;27;19998;-37
2024/04/06 10:45:26;;;;;;;;;;;;;;;;;;5140771;27;19907;-37
2024/04/06 10:47:52;;;;;;;;;;;;;;;;;;5140931;27;19915;-37
2024/04/06 10:50:18;;;;;;;;;;;;;;;;;;5140742;27;19911;-37
2024/04/06 10:52:45;;;;;;;;;;;;;;;;;;5140350;27;19915;-37
2024/04/06 10:55:15;;;;;;;;;;;;;;;;;;5140764;27;19982;-38
2024/04/06 10:57:41;;;;;;;;;;;;;;;;;;5140564;27;19994;-37
2024/04/06 11:00:08;;;;;;;;;;;;;;;;;;5140456;27;19954;-37
2024/04/06 11:02:34;;;;;;;;;;;;;;;;;;5140083;27;19942;-37
2024/04/06 11:05:00;;;;;;;;;;;;;;;;;;5140613;27;19903;-38
2024/04/06 11:07:26;;;;;;;;;;;;;;;;;;5140542;27;20294;-37
2024/04/06 11:09:52;;;;;;;;;;;;;;;;;;5140015;27;20374;-37
2024/04/06 11:12:18;;;;;;;;;;;;;;;;;;5140433;27;19931;-37
2024/04/06 11:14:44;;;;;;;;;;;;;;;;;;5140150;27;20460;-37
2024/04/06 11:17:10;;;;;;;;;;;;;;;;;;5140127;27;19911;-37
2024/04/06 11:19:36;;;;;;;;;;;;;;;;;;5140560;27;19914;-38
2024/04/06 11:22:02;;;;;;;;;;;;;;;;;;5140020;27;19912;-38
2024/04/06 11:24:28;;;;;;;;;;;;;;;;;;5140273;27;19908;-37
2024/04/06 11:26:54;;;;;;;;;;;;;;;;;;5139913;27;19908;-37
2024/04/06 11:29:23;;;;;;;;;;;;;;;;;;5139415;27;19955;-37
2024/04/06 11:31:49;;;;;;;;;;;;;;;;;;5139776;27;19915;-37
2024/04/06 11:34:15;;;;;;;;;;;;;;;;;;5139109;27;19915;-37
2024/04/06 11:36:41;;;;;;;;;;;;;;;;;;5121284;27;20431;-37
2024/04/06 11:39:07;;;;;;;;;;;;;;;;;;5139953;27;19908;-37
2024/04/06 11:41:33;;;;;;;;;;;;;;;;;;5139937;27;20003;-37
2024/04/06 11:43:59;;;;;;;;;;;;;;;;;;5139830;27;19908;-37
2024/04/06 11:46:25;;;;;;;;;;;;;;;;;;5139792;27;19953;-37
2024/04/06 11:48:51;;;;;;;;;;;;;;;;;;5140011;27;19908;-37
2024/04/06 11:51:17;;;;;;;;;;;;;;;;;;5139689;27;19921;-37
2024/04/06 11:53:43;;;;;;;;;;;;;;;;;;5139969;27;20373;-37
2024/04/06 11:56:09;;;;;;;;;;;;;;;;;;5139452;27;19915;-37
2024/04/06 11:58:35;;;;;;;;;;;;;;;;;;5139700;27;20010;-37
2024/04/06 12:01:01;;;;;;;;;;;;;;;;;;5139182;27;19907;-37
2024/04/06 12:03:27;;;;;;;;;;;;;;;;;;5139316;27;20329;-37
2024/04/06 12:05:53;;;;;;;;;;;;;;;;;;5139231;27;19929;-37
2024/04/06 12:08:19;;;;;;;;;;;;;;;;;;5139274;27;19908;-37
2024/04/06 12:10:45;;;;;;;;;;;;;;;;;;5139202;27;19955;-37
2024/04/06 12:13:11;;;;;;;;;;;;;;;;;;5139562;27;19914;-37
2024/04/06 12:15:40;;;;;;;;;;;;;;;;;;5139140;27;19938;-37
2024/04/06 12:18:08;;;;;;;;;;;;;;;;;;5139306;27;19908;-36
2024/04/06 12:20:34;;;;;;;;;;;;;;;;;;5139222;27;19914;-36
2024/04/06 12:23:00;;;;;;;;;;;;;;;;;;5139455;27;19911;-36
2024/04/06 12:25:26;;;;;;;;;;;;;;;;;;5138961;27;19929;-36
2024/04/06 12:27:51;;;;;;;;;;;;;;;;;;5139288;28;19930;-36
2024/04/06 12:30:17;;;;;;;;;;;;;;;;;;5138646;27;19926;-36
2024/04/06 12:32:45;;;;;;;;;;;;;;;;;;5139197;27;20251;-36
2024/04/06 12:35:11;;;;;;;;;;;;;;;;;;5138799;28;19930;-36
2024/04/06 12:37:36;;;;;;;;;;;;;;;;;;5139101;28;19908;-36
2024/04/06 12:40:03;;;;;;;;;;;;;;;;;;5139050;28;19990;-36
2024/04/06 12:42:29;;;;;;;;;;;;;;;;;;5120681;28;19908;-36
2024/04/06 12:44:55;;;;;;;;;;;;;;;;;;5138693;28;20006;-36
2024/04/06 12:47:21;;;;;;;;;;;;;;;;;;5143174;27;19907;-37
2024/04/06 12:49:47;;;;;;;;;;;;;;;;;;5143192;27;20365;-37
2024/04/06 12:52:13;;;;;;;;;;;;;;;;;;5143503;27;19961;-37
2024/04/06 12:54:39;;;;;;;;;;;;;;;;;;5143004;27;19910;-37
2024/04/06 12:59:50;;;;;;;;;;;;;;;;;;5142920;27;19968;-37
2024/04/06 13:02:16;;;;;;;;;;;;;;;;;;5142851;27;19907;-37
2024/04/06 13:04:42;;;;;;;;;;;;;;;;;;5143088;27;19908;-37
2024/04/06 13:07:08;;;;;;;;;;;;;;;;;;5143200;27;19912;-37
2024/04/06 13:09:34;;;;;;;;;;;;;;;;;;5142161;27;19911;-37
2024/04/06 13:12:00;;;;;;;;;;;;;;;;;;5142841;27;19915;-37
2024/04/06 13:14:27;;;;;;;;;;;;;;;;;;5142677;27;20415;-37
2024/04/06 13:16:53;;;;;;;;;;;;;;;;;;5142308;27;20450;-37
2024/04/06 13:19:19;;;;;;;;;;;;;;;;;;5142515;27;19911;-37
2024/04/06 13:21:45;;;;;;;;;;;;;;;;;;5142793;27;19914;-37
2024/04/06 13:24:11;;;;;;;;;;;;;;;;;;5142621;27;19907;-37
2024/04/06 13:26:37;;;;;;;;;;;;;;;;;;5142650;27;20392;-37
2024/04/06 13:29:04;;;;;;;;;;;;;;;;;;5142150;27;19919;-37
2024/04/06 13:31:30;;;;;;;;;;;;;;;;;;5142335;27;19982;-37
2024/04/06 13:33:55;;;;;;;;;;;;;;;;;;5142597;27;19968;-37
2024/04/06 13:36:21;;;;;;;;;;;;;;;;;;5142367;27;19907;-37
2024/04/06 13:38:47;;;;;;;;;;;;;;;;;;5141987;27;20350;-37
2024/04/06 13:41:13;;;;;;;;;;;;;;;;;;5142301;27;19915;-37
2024/04/06 13:43:39;;;;;;;;;;;;;;;;;;5141993;27;19929;-37
2024/04/06 13:46:05;;;;;;;;;;;;;;;;;;5142392;27;19908;-37
2024/04/06 13:48:31;;;;;;;;;;;;;;;;;;5141913;27;19907;-37
2024/04/06 13:50:57;;;;;;;;;;;;;;;;;;5141680;27;19911;-37
2024/04/06 13:53:23;;;;;;;;;;;;;;;;;;5141818;27;19992;-37
2024/04/06 13:55:49;;;;;;;;;;;;;;;;;;5142127;27;20274;-37
2024/04/06 13:58:15;;;;;;;;;;;;;;;;;;5141114;27;19904;-37
2024/04/06 14:00:41;;;;;;;;;;;;;;;;;;5142195;27;20354;-37
2024/04/06 14:03:07;;;;;;;;;;;;;;;;;;5141878;27;19969;-36
2024/04/06 14:05:33;;;;;;;;;;;;;;;;;;5141542;27;19911;-37
2024/04/06 14:07:59;;;;;;;;;;;;;;;;;;5141679;27;19907;-37
2024/04/06 14:10:25;;;;;;;;;;;;;;;;;;5141174;27;19912;-37
2024/04/06 14:12:51;;;;;;;;;;;;;;;;;;5141862;27;19907;-37
2024/04/06 14:15:17;;;;;;;;;;;;;;;;;;5141565;27;19915;-37
2024/04/06 14:17:43;;;;;;;;;;;;;;;;;;5141361;27;19922;-37
2024/04/06 14:20:10;;;;;;;;;;;;;;;;;;5141335;27;19907;-37
2024/04/06 14:22:36;;;;;;;;;;;;;;;;;;5141390;27;19915;-37
2024/04/06 14:25:02;;;;;;;;;;;;;;;;;;5141300;27;19909;-37
2024/04/06 14:27:28;;;;;;;;;;;;;;;;;;5140662;27;19932;-38
2024/04/06 14:29:59;;;;;;;;;;;;;;;;;;5140433;27;19934;-37
2024/04/06 14:32:25;;;;;;;;;;;;;;;;;;5140885;27;19908;-37
2024/04/06 14:34:51;;;;;;;;;;;;;;;;;;5141360;27;19907;-37
2024/04/06 14:37:17;;;;;;;;;;;;;;;;;;5140807;27;20388;-36
2024/04/06 14:39:43;;;;;;;;;;;;;;;;;;5141036;27;19943;-36
2024/04/06 14:42:09;;;;;;;;;;;;;;;;;;5141047;27;19915;-36
2024/04/06 14:44:35;;;;;;;;;;;;;;;;;;5140500;27;19907;-37
2024/04/06 14:47:01;;;;;;;;;;;;;;;;;;5140759;27;20308;-37
2024/04/06 14:49:27;;;;;;;;;;;;;;;;;;5140880;27;19911;-37
2024/04/06 14:51:53;;;;;;;;;;;;;;;;;;5140478;27;19918;-37
2024/04/06 14:54:19;;;;;;;;;;;;;;;;;;5140823;27;20492;-37
2024/04/06 14:56:45;;;;;;;;;;;;;;;;;;5140965;27;19908;-37
2024/04/06 14:59:11;;;;;;;;;;;;;;;;;;5140620;27;19937;-37
2024/04/06 15:01:37;;;;;;;;;;;;;;;;;;5140663;27;20026;-37
2024/04/06 15:04:03;;;;;;;;;;;;;;;;;;5140871;27;19928;-37
2024/04/06 15:06:29;;;;;;;;;;;;;;;;;;5140265;27;19907;-37
2024/04/06 15:08:55;;;;;;;;;;;;;;;;;;5139457;27;20319;-37
2024/04/06 15:11:21;;;;;;;;;;;;;;;;;;5140497;27;19911;-37
2024/04/06 15:13:47;;;;;;;;;;;;;;;;;;5140363;27;19914;-37
2024/04/06 15:16:13;;;;;;;;;;;;;;;;;;5140161;27;20459;-37
2024/04/06 15:18:39;;;;;;;;;;;;;;;;;;5140432;27;19914;-37
2024/04/06 15:21:05;;;;;;;;;;;;;;;;;;5139966;27;20041;-37
2024/04/06 15:23:30;;;;;;;;;;;;;;;;;;5140093;27;19914;-37
2024/04/06 15:25:56;;;;;;;;;;;;;;;;;;5140374;27;19907;-37
2024/04/06 15:28:22;;;;;;;;;;;;;;;;;;5140222;27;19911;-37
2024/04/06 15:30:48;;;;;;;;;;;;;;;;;;5140126;27;19984;-37
2024/04/06 15:33:14;;;;;;;;;;;;;;;;;;5139821;27;19908;-37
2024/04/06 15:35:40;;;;;;;;;;;;;;;;;;5140302;27;20378;-37
2024/04/06 15:38:06;;;;;;;;;;;;;;;;;;5139835;27;19915;-37
2024/04/06 15:40:32;;;;;;;;;;;;;;;;;;5139890;27;19946;-37
2024/04/06 15:42:58;;;;;;;;;;;;;;;;;;5139805;27;20256;-37
2024/04/06 15:45:24;;;;;;;;;;;;;;;;;;5139643;27;19912;-37
2024/04/06 15:47:50;;;;;;;;;;;;;;;;;;5139603;27;19907;-37
2024/04/06 15:50:16;;;;;;;;;;;;;;;;;;5139554;27;19912;-36
2024/04/06 15:52:42;;;;;;;;;;;;;;;;;;5139724;27;19923;-36
2024/04/06 15:55:08;;;;;;;;;;;;;;;;;;5139660;27;20299;-36
2024/04/06 15:57:34;;;;;;;;;;;;;;;;;;5139618;27;20014;-36
2024/04/06 16:00:00;;;;;;;;;;;;;;;;;;5139136;27;19915;-37
2024/04/06 16:02:26;;;;;;;;;;;;;;;;;;5139484;27;19908;-37
2024/04/06 16:04:52;;;;;;;;;;;;;;;;;;5139645;27;20390;-37
2024/04/06 16:07:18;;;;;;;;;;;;;;;;;;5139154;27;19908;-37
2024/04/06 16:09:44;;;;;;;;;;;;;;;;;;5139319;27;20016;-37
2024/04/06 16:12:10;;;;;;;;;;;;;;;;;;5139175;27;19933;-37
2024/04/06 16:14:36;;;;;;;;;;;;;;;;;;5139123;27;20322;-37
2024/04/06 16:17:02;;;;;;;;;;;;;;;;;;5139490;27;20006;-37
2024/04/06 16:19:29;;;;;;;;;;;;;;;;;;5139104;27;20391;-37
2024/04/06 16:21:55;;;;;;;;;;;;;;;;;;5138723;27;20366;-37
2024/04/06 16:24:21;;;;;;;;;;;;;;;;;;5138724;27;19908;-37
2024/04/06 16:26:47;;;;;;;;;;;;;;;;;;5139035;27;19908;-37
2024/04/06 16:29:13;;;;;;;;;;;;;;;;;;5129380;27;20274;-37
2024/04/06 16:31:42;;;;;;;;;;;;;;;;;;5117485;28;20509;-36
2024/04/06 16:34:08;;;;;;;;;;;;;;;;;;5118863;28;19908;-36
2024/04/06 16:36:34;;;;;;;;;;;;;;;;;;5118072;28;19950;-36
2024/04/06 16:39:00;;;;;;;;;;;;;;;;;;5118294;28;20366;-36
2024/04/06 16:41:36;;;;;;;;;;;;;;;;;;;;;